SAMR/AFA METAR and TAF weather

Enter ICAO airport designator
Station Type Date Time Source
SAMR METAR 2022/01/06 21:15 UTC NOAA

SAMR 062115Z 18015G25KT 9000 -TSRA BKN030 FEW045CB 33/17 Q1010


Station Type Date Time Source
SAMR Decoded METAR 2022/01/06 21:15 UTC NOAA

San Rafael Aerodrome, Argentina (SAMR) 34-35S 068-24W 748M
Jan 06, 2022 - 04:15 PM EST / 2022.01.06 2115 UTC
Wind: from the S (180 degrees) at 17 MPH (15 KT) gusting to 29 MPH (25 KT):0
Visibility: 5 mile(s):0
Sky conditions: mostly cloudy
Weather: light rain with thunder; Cumulonimbus clouds observed
Temperature: 91 F (33 C)
Dew Point: 62 F (17 C)
Relative Humidity: 38%
Pressure (altimeter): 29.83 in. Hg (1010 hPa)
ob: SAMR 062115Z 18015G25KT 9000 -TSRA BKN030 FEW045CB 33/17 Q1010
cycle: 21

Station Type Date Time Source
SAMR TAF 2022/01/13 06:09 UTC NOAA

TAF SAMR 130500Z 1306/1406 23005KT CAVOK TX42/1319Z TN21/1309Z
BECMG 1311/1313 36010KT
BECMG 1320/1322 9999 SCT045
BECMG 1401/1403 20010KT CAVOK

Example: see airport list